Time;durP1;ratioP1;P1;durP2;ratioP2;P2;SDS_P1;SDS_P2;PMS_P1;PMS_P2;Temp;Humidity;BMP_temperature;BMP_pressure;BME280_temperature;BME280_humidity;BME280_pressure;Samples;Min_cycle;Max_cycle;Signal;HPM_P1;HPM_P2
2020/12/30 13:42:15;;;;;;;25.60;17.60;;;;;;;4.57;99.06;99886.84;5151599;27;24857;-79
2020/12/30 13:44:44;;;;;;;25.38;16.17;;;;;;;4.65;97.49;99895.19;5130017;28;20175;-79
2020/12/30 13:47:12;;;;;;;25.00;15.70;;;;;;;4.67;97.77;99885.78;5093251;28;20051;-78
2020/12/30 13:49:39;;;;;;;21.63;15.73;;;;;;;4.73;97.07;99892.47;5106879;28;20259;-81
2020/12/30 13:52:12;;;;;;;22.77;15.07;;;;;;;4.69;96.44;99891.72;5095936;28;20043;-83
2020/12/30 13:54:39;;;;;;;23.55;15.48;;;;;;;4.75;96.91;99888.19;5093284;28;20536;-80
2020/12/30 13:57:08;;;;;;;25.75;15.73;;;;;;;4.79;95.74;99887.28;5092571;28;20048;-83
2020/12/30 13:59:38;;;;;;;20.77;14.20;;;;;;;4.87;95.37;99896.44;5095341;28;20070;-82
2020/12/30 14:02:05;;;;;;;20.10;14.98;;;;;;;5.00;94.24;99891.94;5109735;28;20047;-82
2020/12/30 14:04:32;;;;;;;21.50;15.73;;;;;;;5.07;93.46;99896.00;5095694;28;20445;-83
2020/12/30 14:07:00;;;;;;;21.73;14.55;;;;;;;4.98;94.08;99893.69;5093891;28;20107;-86
2020/12/30 14:09:27;;;;;;;18.73;13.38;;;;;;;4.96;94.41;99899.66;5116081;28;20043;-84
2020/12/30 14:12:23;;;;;;;21.08;14.85;;;;;;;5.24;93.24;99902.47;5122752;28;20065;-87
2020/12/30 14:14:50;;;;;;;20.90;14.52;;;;;;;5.09;93.16;99896.00;5128327;28;20043;-85
2020/12/30 15:59:10;;;;;;;21.52;15.45;;;;;;;4.55;97.78;99978.63;6247493;22;938415;-83
2020/12/30 16:01:36;;;;;;;22.80;15.43;;;;;;;4.57;96.44;99981.13;6292452;22;20075;-84
2020/12/30 16:04:03;;;;;;;22.55;15.52;;;;;;;4.63;95.64;99981.00;6270819;22;20031;-83
2020/12/30 16:06:31;;;;;;;23.23;15.05;;;;;;;4.72;94.92;99980.00;6228830;22;20050;-81
2020/12/30 16:08:58;;;;;;;20.80;15.13;;;;;;;4.60;94.61;99984.47;6253760;22;20042;-81
2020/12/30 16:11:26;;;;;;;22.60;15.23;;;;;;;4.59;95.08;99987.06;6225173;22;20206;-83
2020/12/30 16:13:56;;;;;;;21.58;15.95;;;;;;;4.73;94.30;99994.44;6254366;22;20031;-82
2020/12/30 16:16:22;;;;;;;25.15;16.08;;;;;;;4.76;93.86;100002.03;6229039;22;20493;-81
2020/12/30 16:18:48;;;;;;;23.15;15.70;;;;;;;4.72;93.36;99997.84;6227662;22;20038;-82
2020/12/30 16:21:19;;;;;;;24.83;16.75;;;;;;;4.69;93.86;99997.94;6252888;22;20079;-82
2020/12/30 16:23:46;;;;;;;22.55;15.88;;;;;;;4.71;93.87;100001.28;6281358;22;20031;-82
2020/12/30 16:26:15;;;;;;;26.08;17.08;;;;;;;4.64;94.08;99995.47;6254685;22;20396;-82
2020/12/30 16:28:47;;;;;;;22.95;15.40;;;;;;;4.62;94.24;100004.81;6253724;22;20031;-82
2020/12/30 16:31:16;;;;;;;23.33;16.08;;;;;;;4.56;93.99;99995.59;6256003;22;20070;-82
2020/12/30 16:33:49;;;;;;;25.10;16.20;;;;;;;4.56;93.99;99995.59;6231083;22;20400;-82
2020/12/30 16:36:16;;;;;;;25.13;16.63;;;;;;;4.64;93.66;99998.00;6242632;22;20023;-82
2020/12/30 16:38:42;;;;;;;22.40;15.13;;;;;;;-143.98;69.50;68091.63;6273466;22;20032;-82
2020/12/30 16:41:15;;;;;;;21.67;14.40;;;;;;;-143.98;100.00;68091.63;6265312;22;20552;-82
2020/12/30 16:43:42;;;;;;;24.05;14.98;;;;;;;-143.98;100.00;68091.63;6256928;22;20023;-82
2020/12/30 16:46:08;;;;;;;24.33;16.40;;;;;;;-143.98;93.66;88685.75;6257604;22;20427;-82
2020/12/30 16:48:37;;;;;;;24.13;15.52;;;;;;;-143.98;100.00;68091.63;6268463;22;20012;-82
2020/12/30 16:51:04;;;;;;;20.48;14.38;;;;;;;-143.98;100.00;68091.63;6247017;22;20084;-82
2020/12/30 16:53:31;;;;;;;21.98;14.82;;;;;;;-143.98;100.00;68091.63;6256345;22;20031;-82
2020/12/30 16:55:57;;;;;;;21.25;14.90;;;;;;;4.64;93.66;99998.00;6229995;22;20035;-83
2020/12/30 16:58:26;;;;;;;33.53;19.20;;;;;;;-143.98;100.00;68091.63;6251665;22;20024;-82
2020/12/30 17:00:53;;;;;;;24.20;17.40;;;;;;;-143.98;69.50;68091.63;6219007;22;20093;-82
2020/12/30 17:03:20;;;;;;;24.90;15.02;;;;;;;4.64;93.66;99998.00;6244516;22;20027;-83
2020/12/30 17:05:47;;;;;;;21.80;15.32;;;;;;;4.29;94.30;100006.22;6222257;22;20031;-81
2020/12/30 17:08:15;;;;;;;24.15;14.98;;;;;;;4.29;94.30;100006.22;6246951;22;20037;-82
2020/12/30 17:10:42;;;;;;;21.70;15.73;;;;;;;-143.98;100.00;68091.63;6274048;22;20127;-82
2020/12/30 17:13:10;;;;;;;24.95;15.75;;;;;;;4.29;94.30;100006.22;6221723;22;20164;-81
2020/12/30 17:15:36;;;;;;;22.00;15.82;;;;;;;-143.98;0.00;68091.63;6221001;22;20323;-81
2020/12/30 17:18:03;;;;;;;33.25;23.40;;;;;;;-143.98;94.30;77639.00;6247365;22;20073;-82
2020/12/30 17:20:29;;;;;;;22.40;15.98;;;;;;;-143.98;100.00;68091.63;6223329;22;20047;-82
2020/12/30 17:22:55;;;;;;;25.23;15.80;;;;;;;-143.98;100.00;68091.63;6249276;22;20027;-82
2020/12/30 17:25:22;;;;;;;22.77;16.00;;;;;;;-143.98;100.00;68091.63;6222994;22;20083;-82
2020/12/30 17:27:51;;;;;;;23.27;15.88;;;;;;;-143.98;100.00;68091.63;6249802;22;20024;-82
2020/12/30 17:30:17;;;;;;;24.98;16.30;;;;;;;-143.98;100.00;68091.63;6250151;22;20484;-82
2020/12/30 17:32:43;;;;;;;31.92;20.65;;;;;;;-143.98;100.00;68091.63;6224718;22;20052;-83
2020/12/30 17:35:10;;;;;;;24.83;16.55;;;;;;;-143.98;100.00;68091.63;6225059;22;20028;-82
2020/12/30 17:37:46;;;;;;;22.83;15.82;;;;;;;-143.98;100.00;68091.63;6227401;22;20023;-83
2020/12/30 17:40:15;;;;;;;25.92;16.95;;;;;;;-143.98;100.00;68091.63;6231444;22;20027;-81
2020/12/30 17:42:41;;;;;;;30.83;21.20;;;;;;;-143.98;100.00;68091.63;6224099;22;20028;-82
2020/12/30 17:45:09;;;;;;;42.80;28.58;;;;;;;-143.98;100.00;68091.63;6225193;22;20032;-82
2020/12/30 17:47:36;;;;;;;31.45;18.88;;;;;;;-143.98;100.00;68091.63;6225511;22;20050;-82
2020/12/30 17:50:06;;;;;;;26.95;17.05;;;;;;;-143.98;100.00;68091.63;6249152;22;20315;-82
2020/12/30 17:52:35;;;;;;;34.25;21.45;;;;;;;-143.98;100.00;68091.63;6225052;22;20128;-82
2020/12/30 17:55:02;;;;;;;26.95;18.33;;;;;;;-143.98;100.00;68091.63;6249400;22;20081;-80
2020/12/30 17:57:28;;;;;;;27.83;18.83;;;;;;;-143.98;100.00;68091.63;6222930;22;20028;-83
2020/12/30 17:59:55;;;;;;;35.22;23.70;;;;;;;-143.98;100.00;68091.63;6277013;22;20210;-83
2020/12/30 18:02:31;;;;;;;25.65;17.80;;;;;;;-143.98;100.00;68091.63;6250735;22;20035;-82
2020/12/30 18:04:57;;;;;;;25.38;17.25;;;;;;;-143.98;100.00;68091.63;6229693;22;20023;-83
2020/12/30 18:07:23;;;;;;;24.50;17.05;;;;;;;-143.98;100.00;68091.63;6230946;22;20075;-83
2020/12/30 18:09:49;;;;;;;28.00;18.77;;;;;;;-143.98;100.00;68091.63;6227997;22;20032;-81
2020/12/30 18:12:38;;;;;;;23.50;17.05;;;;;;;-143.98;100.00;68091.63;6282974;22;20067;-85
2020/12/30 18:15:06;;;;;;;26.15;18.38;;;;;;;-143.98;100.00;68091.63;6252238;22;20034;-83
2020/12/30 18:17:33;;;;;;;26.42;17.98;;;;;;;-143.98;100.00;68091.63;6252734;22;20357;-82
2020/12/30 18:19:59;;;;;;;25.42;18.17;;;;;;;-143.98;100.00;68091.63;6277628;22;20034;-82
2020/12/30 18:22:25;;;;;;;25.73;17.90;;;;;;;-143.98;100.00;68091.63;6252324;22;20034;-82
2020/12/30 18:24:52;;;;;;;25.83;16.95;;;;;;;-143.98;100.00;68091.63;6224953;22;20027;-82
2020/12/30 18:27:18;;;;;;;25.10;18.27;;;;;;;-143.98;100.00;68091.63;6248271;22;20292;-83
2020/12/30 18:29:44;;;;;;;23.83;16.45;;;;;;;-143.98;100.00;68091.63;6220350;22;20063;-81
2020/12/30 18:32:17;;;;;;;21.90;16.23;;;;;;;-143.98;100.00;68091.63;6225424;22;20038;-82
2020/12/30 18:34:46;;;;;;;29.17;16.58;;;;;;;-143.98;100.00;68091.63;6225640;22;20024;-82
2020/12/30 18:37:14;;;;;;;28.67;17.08;;;;;;;-143.98;100.00;68091.63;6224423;22;20024;-82
2020/12/30 18:39:43;;;;;;;20.80;16.67;;;;;;;-143.98;100.00;68091.63;6224362;22;20056;-83
2020/12/30 18:42:10;;;;;;;25.17;17.67;;;;;;;-143.98;100.00;68091.63;6250341;22;20023;-83
2020/12/30 18:44:37;;;;;;;23.52;18.10;;;;;;;-143.98;100.00;68091.63;6227043;22;20082;-82
2020/12/30 18:47:03;;;;;;;23.92;17.58;;;;;;;-143.98;100.00;68091.63;6253128;22;20018;-81
2020/12/30 18:49:31;;;;;;;29.00;18.45;;;;;;;-143.98;100.00;68091.63;6224919;22;20035;-82
2020/12/30 18:51:57;;;;;;;23.77;16.77;;;;;;;-143.98;100.00;68091.63;6229811;22;20019;-82
2020/12/30 18:54:23;;;;;;;23.08;16.05;;;;;;;-143.98;100.00;68091.63;6266319;22;20060;-81
2020/12/30 18:56:50;;;;;;;28.60;18.15;;;;;;;-143.98;100.00;68091.63;6267432;22;20003;-82
2020/12/30 18:59:19;;;;;;;24.58;17.48;;;;;;;-143.98;100.00;68091.63;6239800;22;20015;-81
2020/12/30 19:01:45;;;;;;;28.58;19.52;;;;;;;-143.98;100.00;68091.63;6243229;22;20057;-81
2020/12/30 19:04:13;;;;;;;25.67;19.35;;;;;;;-143.98;100.00;68091.63;6234460;22;20032;-82
2020/12/30 19:06:42;;;;;;;22.85;16.35;;;;;;;-143.98;100.00;68091.63;6253488;22;20042;-81
2020/12/30 19:09:08;;;;;;;24.90;17.98;;;;;;;-143.98;100.00;68091.63;6252671;22;20214;-83
2020/12/30 19:11:34;;;;;;;27.48;17.63;;;;;;;-143.98;100.00;68091.63;6254336;22;20023;-82
2020/12/30 19:14:01;;;;;;;25.95;21.30;;;;;;;-143.98;100.00;68091.63;6227810;22;20099;-82
2020/12/30 19:16:27;;;;;;;30.33;21.52;;;;;;;-143.98;100.00;68091.63;6253539;22;20027;-81
2020/12/30 19:18:55;;;;;;;23.35;18.80;;;;;;;-143.98;100.00;68091.63;6235553;22;20042;-82
2020/12/30 19:21:24;;;;;;;31.08;23.17;;;;;;;-143.98;100.00;68091.63;6251869;22;20034;-81
2020/12/30 19:23:54;;;;;;;32.03;23.13;;;;;;;-143.98;100.00;68091.63;6226467;22;20077;-82
2020/12/30 19:26:24;;;;;;;37.83;28.13;;;;;;;-143.98;100.00;68091.63;6228777;22;20038;-81
2020/12/30 19:28:53;;;;;;;39.45;26.90;;;;;;;-143.98;100.00;68091.63;6282161;22;20321;-81
2020/12/30 19:31:26;;;;;;;37.88;25.95;;;;;;;-143.98;100.00;68091.63;6252312;22;20023;-82
2020/12/30 19:33:53;;;;;;;28.42;20.75;;;;;;;-143.98;100.00;68091.63;6229453;22;20268;-82
2020/12/30 19:36:21;;;;;;;30.60;23.05;;;;;;;-143.98;100.00;68091.63;6253524;22;20031;-81
2020/12/30 19:38:47;;;;;;;46.03;31.23;;;;;;;-143.98;100.00;68091.63;6250110;22;20439;-81
2020/12/30 19:41:17;;;;;;;40.22;28.75;;;;;;;-143.98;100.00;68091.63;6251921;22;20027;-82
2020/12/30 19:43:44;;;;;;;29.30;20.15;;;;;;;-143.98;100.00;68091.63;6251035;22;20034;-82
2020/12/30 19:46:11;;;;;;;24.65;17.83;;;;;;;-143.98;100.00;68091.63;6252165;22;20028;-82
2020/12/30 19:48:38;;;;;;;26.90;19.35;;;;;;;-143.98;100.00;68091.63;6248207;22;20028;-82
2020/12/30 19:51:05;;;;;;;29.48;20.10;;;;;;;-143.98;100.00;68091.63;6227008;22;20129;-82
2020/12/30 19:53:32;;;;;;;31.35;19.20;;;;;;;-143.98;100.00;68091.63;6253781;22;20270;-82
2020/12/30 19:55:58;;;;;;;28.30;19.70;;;;;;;-143.98;100.00;68091.63;6234570;22;20099;-82
2020/12/30 19:58:25;;;;;;;27.48;16.92;;;;;;;-143.98;100.00;68091.63;6264918;22;20282;-83
2020/12/30 20:01:20;;;;;;;22.73;17.10;;;;;;;-143.98;100.00;68091.63;6244493;22;20067;-83
2020/12/30 20:03:46;;;;;;;24.23;16.92;;;;;;;-143.98;100.00;68091.63;6232859;22;20020;-82
2020/12/30 20:06:16;;;;;;;32.05;21.30;;;;;;;-143.98;100.00;68091.63;6228526;22;20027;-82
2020/12/30 20:08:49;;;;;;;24.42;17.50;;;;;;;-143.98;100.00;68091.63;6286180;22;20109;-81
2020/12/30 20:11:19;;;;;;;30.67;23.25;;;;;;;-143.98;100.00;68091.63;6241999;22;20076;-83
2020/12/30 20:13:47;;;;;;;53.45;37.13;;;;;;;-143.98;100.00;68091.63;6239114;22;20376;-82
2020/12/30 20:16:31;;;;;;;60.53;40.10;;;;;;;-143.98;100.00;68091.63;6252610;22;20028;-82
2020/12/30 20:18:58;;;;;;;33.78;25.42;;;;;;;-143.98;100.00;68091.63;6229083;22;20070;-82
2020/12/30 20:21:28;;;;;;;28.48;21.70;;;;;;;-143.98;100.00;68091.63;6229024;22;20023;-82
2020/12/30 20:23:57;;;;;;;29.92;18.95;;;;;;;-143.98;100.00;68091.63;6227964;22;20027;-82
2020/12/30 20:26:24;;;;;;;29.17;21.98;;;;;;;-143.98;100.00;68091.63;6258359;22;20019;-82
2020/12/30 20:28:51;;;;;;;22.35;16.42;;;;;;;-143.98;100.00;68091.63;6235137;22;20066;-84
2020/12/30 20:31:23;;;;;;;22.88;15.70;;;;;;;-143.98;100.00;68091.63;6260742;22;20027;-83
2020/12/30 20:33:54;;;;;;;23.95;16.58;;;;;;;-143.98;100.00;68091.63;6255612;22;20035;-82
2020/12/30 20:36:22;;;;;;;19.08;14.13;;;;;;;-143.98;100.00;68091.63;6226507;22;20167;-82
2020/12/30 20:38:50;;;;;;;28.00;20.00;;;;;;;-143.98;100.00;68091.63;6278433;22;20023;-82
2020/12/30 20:41:20;;;;;;;24.38;17.50;;;;;;;-143.98;100.00;68091.63;6227699;22;20111;-81
2020/12/30 20:43:48;;;;;;;19.33;14.90;;;;;;;-143.98;100.00;68091.63;6226877;22;20028;-82
2020/12/30 20:46:15;;;;;;;25.27;17.63;;;;;;;-143.98;100.00;68091.63;6228105;22;20455;-82
2020/12/30 20:48:42;;;;;;;19.70;13.48;;;;;;;-143.98;100.00;68091.63;6229722;22;20067;-82
2020/12/30 20:51:10;;;;;;;18.83;13.63;;;;;;;-143.98;100.00;68091.63;6230478;22;20043;-83
2020/12/30 20:53:43;;;;;;;18.58;13.10;;;;;;;-143.98;100.00;68091.63;6255685;22;20058;-84
2020/12/30 20:56:12;;;;;;;17.55;13.07;;;;;;;-143.98;100.00;68091.63;6257674;22;20083;-82
2020/12/30 20:58:39;;;;;;;15.00;11.27;;;;;;;-143.98;100.00;68091.63;6254583;22;20055;-82
2020/12/30 21:01:11;;;;;;;12.98;11.25;;;;;;;-143.98;100.00;68091.63;6254031;22;20058;-82
2020/12/30 21:03:38;;;;;;;14.40;11.27;;;;;;;-143.98;100.00;68091.63;6228419;22;20058;-82
2020/12/30 21:06:08;;;;;;;13.73;10.55;;;;;;;-143.98;100.00;68091.63;6230381;22;20300;-84
2020/12/30 21:08:44;;;;;;;13.38;10.25;;;;;;;-143.98;100.00;68091.63;6254857;22;20028;-82
2020/12/30 21:11:12;;;;;;;15.50;10.10;;;;;;;-143.98;100.00;68091.63;6230149;22;20451;-83
2020/12/30 21:13:38;;;;;;;13.75;10.00;;;;;;;-143.98;100.00;68091.63;6256861;22;20028;-83
2020/12/30 21:16:06;;;;;;;13.88;10.07;;;;;;;-143.98;100.00;68091.63;6232292;22;20034;-82
2020/12/30 21:18:35;;;;;;;12.45;9.80;;;;;;;-143.98;100.00;68091.63;6255299;22;20363;-83
2020/12/30 21:21:05;;;;;;;10.57;9.07;;;;;;;-143.98;100.00;68091.63;6255532;22;20103;-83
2020/12/30 21:23:33;;;;;;;10.48;9.20;;;;;;;-143.98;100.00;68091.63;6283828;22;20046;-82
2020/12/30 21:26:00;;;;;;;11.82;8.68;;;;;;;-143.98;100.00;68091.63;6236661;22;20028;-82
2020/12/30 21:28:29;;;;;;;12.95;7.85;;;;;;;-143.98;100.00;68091.63;6257225;22;20032;-83
2020/12/30 21:30:55;;;;;;;10.02;8.23;;;;;;;-143.98;100.00;68091.63;6256926;22;20027;-84
2020/12/30 21:33:22;;;;;;;12.05;7.78;;;;;;;-143.98;100.00;68091.63;6255847;22;20101;-83
2020/12/30 21:35:52;;;;;;;7.50;6.60;;;;;;;-143.98;100.00;68091.63;6231345;22;20024;-83
2020/12/30 21:38:18;;;;;;;9.32;6.75;;;;;;;-143.98;100.00;68091.63;6230563;22;20024;-82
2020/12/30 21:40:44;;;;;;;10.85;6.97;;;;;;;-143.98;100.00;68091.63;6231044;22;20031;-81
2020/12/30 21:43:14;;;;;;;8.50;6.75;;;;;;;-143.98;100.00;68091.63;6264692;22;20039;-82
2020/12/30 21:45:41;;;;;;;8.00;6.32;;;;;;;-143.98;100.00;68091.63;6249604;22;20019;-82
2020/12/30 21:48:07;;;;;;;9.50;5.85;;;;;;;-143.98;100.00;68091.63;6233283;22;20600;-82
2020/12/30 21:50:37;;;;;;;9.85;6.38;;;;;;;-143.98;100.00;68091.63;6230023;22;20034;-82
2020/12/30 21:53:03;;;;;;;11.52;7.07;;;;;;;-143.98;100.00;68091.63;6253868;22;20024;-82
2020/12/30 21:55:29;;;;;;;10.95;7.43;;;;;;;-143.98;100.00;68091.63;6253395;22;20023;-82
2020/12/30 21:57:57;;;;;;;10.73;7.47;;;;;;;-143.98;100.00;68091.63;6252620;22;20078;-82
2020/12/30 22:00:23;;;;;;;16.92;7.80;;;;;;;-143.98;100.00;68091.63;6252736;22;20107;-82
2020/12/30 22:02:53;;;;;;;10.13;7.40;;;;;;;-143.98;100.00;68091.63;6279795;22;20585;-83
2020/12/30 22:05:19;;;;;;;10.02;7.75;;;;;;;-143.98;100.00;68091.63;6253452;22;20050;-81
2020/12/30 22:07:56;;;;;;;11.90;8.38;;;;;;;-143.98;100.00;68091.63;6254946;22;20027;-82
2020/12/30 22:10:29;;;;;;;12.93;7.90;;;;;;;-143.98;100.00;68091.63;6229207;22;20031;-82
2020/12/30 22:12:58;;;;;;;11.35;8.02;;;;;;;-143.98;100.00;68091.63;6255679;22;20077;-82
2020/12/30 22:15:25;;;;;;;13.40;8.30;;;;;;;-143.98;100.00;68091.63;6229353;22;20031;-82
2020/12/30 22:17:57;;;;;;;12.32;8.90;;;;;;;-143.98;100.00;68091.63;6252598;22;20161;-82
2020/12/30 22:20:23;;;;;;;14.32;8.30;;;;;;;-143.98;100.00;68091.63;6252218;22;20016;-84
2020/12/30 22:22:52;;;;;;;11.98;8.05;;;;;;;-143.98;100.00;68091.63;6235375;22;20020;-85
2020/12/30 22:25:18;;;;;;;12.63;8.30;;;;;;;-143.98;100.00;68091.63;6254617;22;20646;-84
2020/12/30 22:27:53;;;;;;;10.55;7.95;;;;;;;-143.98;100.00;68091.63;6230304;22;20039;-85
2020/12/30 22:30:20;;;;;;;13.05;7.68;;;;;;;-143.98;100.00;68091.63;6253149;22;20039;-84
2020/12/30 22:32:46;;;;;;;10.30;8.40;;;;;;;-143.98;100.00;68091.63;6255486;22;20085;-84
2020/12/30 22:35:13;;;;;;;15.30;8.52;;;;;;;-143.98;100.00;68091.63;6227877;22;20557;-84
2020/12/30 22:37:52;;;;;;;10.63;9.00;;;;;;;-143.98;100.00;68091.63;6279543;22;20026;-83
2020/12/30 22:40:18;;;;;;;12.82;8.57;;;;;;;-143.98;100.00;68091.63;6253082;22;20035;-83
2020/12/30 22:42:44;;;;;;;15.05;9.18;;;;;;;-143.98;100.00;68091.63;6228218;22;20024;-83
2020/12/30 22:45:13;;;;;;;11.57;8.88;;;;;;;-143.98;100.00;68091.63;6227293;22;20297;-83
2020/12/30 22:47:40;;;;;;;13.60;9.20;;;;;;;-143.98;100.00;68091.63;6253220;22;20077;-84
2020/12/30 22:50:11;;;;;;;11.75;8.82;;;;;;;-143.98;100.00;68091.63;6279795;22;20028;-83
2020/12/30 22:52:37;;;;;;;15.02;9.15;;;;;;;-143.98;100.00;68091.63;6278762;22;20046;-83
2020/12/30 22:55:05;;;;;;;15.70;9.18;;;;;;;-143.98;100.00;68091.63;6276444;22;20099;-84
2020/12/30 22:57:31;;;;;;;17.73;9.25;;;;;;;-143.98;100.00;68091.63;6252165;22;20039;-84
2020/12/30 22:59:57;;;;;;;13.57;9.40;;;;;;;-143.98;100.00;68091.63;6251537;22;20027;-84
2020/12/30 23:02:26;;;;;;;12.90;8.82;;;;;;;-143.98;100.00;68091.63;6252507;22;20032;-83
2020/12/30 23:04:53;;;;;;;16.52;10.27;;;;;;;-143.98;100.00;68091.63;6251649;22;20317;-84
2020/12/30 23:07:21;;;;;;;11.35;9.30;;;;;;;-143.98;100.00;68091.63;6253911;22;20046;-84
2020/12/30 23:09:47;;;;;;;15.30;9.50;;;;;;;-143.98;100.00;68091.63;6253367;22;20293;-84
2020/12/30 23:12:16;;;;;;;15.60;10.27;;;;;;;-143.98;100.00;68091.63;6229653;22;20035;-83
2020/12/30 23:14:45;;;;;;;16.67;10.27;;;;;;;-143.98;100.00;68091.63;6254582;22;20043;-84
2020/12/30 23:17:12;;;;;;;17.45;10.98;;;;;;;-143.98;100.00;68091.63;6229550;22;20089;-84
2020/12/30 23:19:39;;;;;;;18.50;11.48;;;;;;;-143.98;100.00;68091.63;6288393;22;20059;-84
2020/12/30 23:22:21;;;;;;;17.63;11.90;;;;;;;-143.98;100.00;68091.63;6259370;22;20065;-84
2020/12/30 23:24:47;;;;;;;15.60;11.50;;;;;;;-143.98;100.00;68091.63;6273392;22;20020;-83
2020/12/30 23:27:14;;;;;;;17.25;11.93;;;;;;;-143.98;100.00;68091.63;6274584;22;20063;-84
2020/12/30 23:29:40;;;;;;;15.93;10.73;;;;;;;-143.98;100.00;68091.63;6237672;22;20027;-83
2020/12/30 23:32:10;;;;;;;15.93;11.52;;;;;;;-143.98;100.00;68091.63;6232170;22;20032;-84
2020/12/30 23:34:40;;;;;;;16.90;12.48;;;;;;;-143.98;100.00;68091.63;6258880;22;20051;-83
2020/12/30 23:37:06;;;;;;;18.55;12.52;;;;;;;-143.98;100.00;68091.63;6272294;22;20012;-82
2020/12/30 23:39:32;;;;;;;19.88;12.98;;;;;;;-143.98;100.00;68091.63;6269019;22;20234;-83
2020/12/30 23:41:59;;;;;;;21.65;13.77;;;;;;;-143.98;100.00;68091.63;6229861;22;20031;-83
2020/12/30 23:44:25;;;;;;;21.90;14.48;;;;;;;-143.98;100.00;68091.63;6229954;22;20099;-83
2020/12/30 23:46:52;;;;;;;21.27;14.10;;;;;;;-143.98;100.00;68091.63;6255650;22;20073;-84
2020/12/30 23:49:18;;;;;;;22.65;13.82;;;;;;;-143.98;100.00;68091.63;6228556;22;20027;-84
2020/12/30 23:51:44;;;;;;;21.80;15.48;;;;;;;-143.98;100.00;68091.63;6254234;22;20549;-84
2020/12/30 23:54:10;;;;;;;21.08;14.65;;;;;;;-143.98;100.00;68091.63;6253736;22;20312;-84
2020/12/30 23:56:40;;;;;;;23.90;15.70;;;;;;;-143.98;100.00;68091.63;6230993;22;20028;-85
2020/12/30 23:59:06;;;;;;;28.88;18.70;;;;;;;-143.98;100.00;68091.63;6254656;22;20050;-84
